createdAt,value
2023-03-08T00:02:05.254Z,26.23
2023-03-08T00:04:31.981Z,21.10
2023-03-08T00:06:58.749Z,24.58
2023-03-08T00:09:25.424Z,19.70
2023-03-08T00:11:52.185Z,22.38
2023-03-08T00:14:20.628Z,19.77
2023-03-08T00:16:47.428Z,20.80
2023-03-08T00:19:14.290Z,17.77
2023-03-08T00:21:41.049Z,22.02
2023-03-08T00:24:07.900Z,19.95
2023-03-08T00:26:34.701Z,21.35
2023-03-08T00:29:01.580Z,23.40
2023-03-08T00:31:28.329Z,21.70
2023-03-08T00:33:55.545Z,20.40
2023-03-08T00:36:22.965Z,20.95
2023-03-08T00:38:51.199Z,21.55
2023-03-08T00:41:18.630Z,20.47
2023-03-08T00:43:45.923Z,23.83
2023-03-08T00:46:13.689Z,21.30
2023-03-08T00:48:41.032Z,22.42
2023-03-08T00:51:08.582Z,23.45
2023-03-08T00:53:35.331Z,23.47
2023-03-08T00:56:02.133Z,21.95
2023-03-08T00:58:30.355Z,21.48
2023-03-08T01:00:57.781Z,22.60
2023-03-08T01:03:25.225Z,22.35
2023-03-08T01:05:54.408Z,22.40
2023-03-08T01:08:22.069Z,22.33
2023-03-08T01:10:54.620Z,21.92
2023-03-08T01:13:21.541Z,24.42
2023-03-08T01:15:48.305Z,20.40
2023-03-08T01:18:15.170Z,21.30
2023-03-08T01:20:42.036Z,22.05
2023-03-08T01:23:09.237Z,24.23
2023-03-08T01:25:36.246Z,22.20
2023-03-08T01:28:03.318Z,20.60
2023-03-08T01:30:30.086Z,27.80
2023-03-08T01:32:56.860Z,26.52
2023-03-08T01:35:23.613Z,21.73
2023-03-08T01:37:53.561Z,25.33
2023-03-08T01:40:21.352Z,32.10
2023-03-08T01:42:48.188Z,29.60
2023-03-08T01:45:52.225Z,23.73
2023-03-08T01:48:20.810Z,20.27
2023-03-08T01:50:47.669Z,28.52
2023-03-08T01:53:14.645Z,24.27
2023-03-08T01:55:41.534Z,24.90
2023-03-08T01:58:08.401Z,30.65
2023-03-08T02:00:35.167Z,29.45
2023-03-08T02:03:05.125Z,24.70
2023-03-08T02:05:31.873Z,30.25
2023-03-08T02:07:58.546Z,27.87
2023-03-08T02:10:25.465Z,26.05
2023-03-08T02:12:52.245Z,28.67
2023-03-08T02:15:20.501Z,26.00
2023-03-08T02:17:47.564Z,28.45
2023-03-08T02:20:21.203Z,27.83
2023-03-08T02:22:50.175Z,25.58
2023-03-08T02:25:19.275Z,22.15
2023-03-08T02:27:46.302Z,24.50
2023-03-08T02:30:15.022Z,24.35
2023-03-08T02:32:42.087Z,26.67
2023-03-08T02:35:09.688Z,28.13
2023-03-08T02:37:36.382Z,26.83
2023-03-08T02:40:03.529Z,28.80
2023-03-08T02:42:30.324Z,26.73
2023-03-08T02:44:57.159Z,30.13
2023-03-08T02:47:23.913Z,31.60
2023-03-08T02:49:50.730Z,29.73
2023-03-08T02:52:17.693Z,30.33
2023-03-08T02:54:44.427Z,28.38
2023-03-08T02:57:11.142Z,31.70
2023-03-08T02:59:37.931Z,29.02
2023-03-08T03:02:04.849Z,25.63
2023-03-08T03:04:32.362Z,26.33
2023-03-08T03:06:59.843Z,28.88
2023-03-08T03:09:27.410Z,28.03
2023-03-08T03:11:54.139Z,25.02
2023-03-08T03:14:20.858Z,26.75
2023-03-08T03:16:47.736Z,28.58
2023-03-08T03:19:14.660Z,27.02
2023-03-08T03:21:41.646Z,25.20
2023-03-08T03:24:08.471Z,28.38
2023-03-08T03:26:35.213Z,30.58
2023-03-08T03:29:01.919Z,28.00
2023-03-08T03:31:28.744Z,31.00
2023-03-08T03:33:55.568Z,28.47
2023-03-08T03:36:22.747Z,27.00
2023-03-08T03:38:49.785Z,28.65
2023-03-08T03:41:20.122Z,28.05
2023-03-08T03:43:47.300Z,29.63
2023-03-08T03:46:16.308Z,30.17
2023-03-08T03:48:43.453Z,36.38
2023-03-08T03:51:13.916Z,38.20
2023-03-08T03:53:40.885Z,37.58
2023-03-08T03:56:11.058Z,37.90
2023-03-08T03:58:38.086Z,35.50
2023-03-08T04:01:15.489Z,32.03
2023-03-08T04:03:42.572Z,31.55
2023-03-08T04:06:23.589Z,33.85
2023-03-08T04:08:53.397Z,33.67
2023-03-08T04:11:23.838Z,33.63
2023-03-08T04:13:50.696Z,34.58
2023-03-08T04:16:22.859Z,33.45
2023-03-08T04:18:54.317Z,32.88
2023-03-08T04:21:21.833Z,37.70
2023-03-08T04:23:48.675Z,38.60
2023-03-08T04:26:15.690Z,33.22
2023-03-08T04:28:42.998Z,31.67
2023-03-08T04:31:12.573Z,31.58
2023-03-08T04:33:39.350Z,27.13
2023-03-08T04:36:06.409Z,31.13
2023-03-08T04:38:36.399Z,31.73
2023-03-08T04:41:21.899Z,32.28
2023-03-08T04:43:50.889Z,33.95
2023-03-08T04:46:19.831Z,31.25
2023-03-08T04:48:47.016Z,34.07
2023-03-08T04:51:15.609Z,28.60
2023-03-08T04:53:44.572Z,33.22
2023-03-08T04:56:13.139Z,31.02
2023-03-08T04:58:39.919Z,31.40
2023-03-08T05:01:24.643Z,29.47
2023-03-08T05:03:52.496Z,29.02
2023-03-08T05:06:20.759Z,31.98
2023-03-08T05:08:47.585Z,32.55
2023-03-08T05:11:20.032Z,31.10
2023-03-08T05:13:46.754Z,31.03
2023-03-08T05:16:13.632Z,28.50
2023-03-08T05:18:40.467Z,29.00
2023-03-08T05:21:11.485Z,30.00
2023-03-08T05:23:38.228Z,29.05
2023-03-08T05:26:05.930Z,26.23
2023-03-08T05:28:34.762Z,34.65
2023-03-08T05:31:04.928Z,31.45
2023-03-08T05:33:32.305Z,26.98
2023-03-08T05:35:59.348Z,32.63
2023-03-08T05:38:26.178Z,27.17
2023-03-08T05:40:53.072Z,26.55
2023-03-08T05:43:20.154Z,24.42
2023-03-08T05:46:04.986Z,24.83
2023-03-08T05:48:34.078Z,22.05
2023-03-08T05:51:12.227Z,23.47
2023-03-08T05:53:39.279Z,22.75
2023-03-08T05:56:14.815Z,24.63
2023-03-08T05:58:43.588Z,22.40
2023-03-08T06:01:22.496Z,25.65
2023-03-08T06:03:51.383Z,22.27
2023-03-08T06:06:19.248Z,24.50
2023-03-08T06:08:46.122Z,19.80
2023-03-08T06:11:13.099Z,18.60
2023-03-08T06:13:40.485Z,19.40
2023-03-08T06:16:07.269Z,20.17
2023-03-08T06:18:36.551Z,20.95
2023-03-08T06:21:14.468Z,23.08
2023-03-08T06:23:41.521Z,21.70
2023-03-08T06:26:08.743Z,21.13
2023-03-08T06:28:36.168Z,15.90
2023-03-08T06:31:03.215Z,16.30
2023-03-08T06:33:31.950Z,17.38
2023-03-08T06:36:05.915Z,17.40
2023-03-08T06:38:34.930Z,15.60
2023-03-08T06:41:02.137Z,13.67
2023-03-08T06:43:29.494Z,13.10
2023-03-08T06:45:57.164Z,16.15
2023-03-08T06:48:25.893Z,12.40
2023-03-08T06:50:53.126Z,12.93
2023-03-08T06:53:20.404Z,14.37
2023-03-08T06:55:47.143Z,16.02
2023-03-08T06:58:13.892Z,12.35
2023-03-08T07:00:40.617Z,14.57
2023-03-08T07:03:07.615Z,13.93
2023-03-08T07:05:34.444Z,12.67
2023-03-08T07:08:01.549Z,16.27
2023-03-08T07:10:28.329Z,12.80
2023-03-08T07:12:56.138Z,11.27
2023-03-08T07:15:24.358Z,12.27
2023-03-08T07:17:55.719Z,12.87
2023-03-08T07:20:24.254Z,15.88
2023-03-08T07:22:51.302Z,17.63
2023-03-08T07:25:20.014Z,18.17
2023-03-08T07:27:47.139Z,14.32
2023-03-08T07:30:15.791Z,14.93
2023-03-08T07:32:43.090Z,13.93
2023-03-08T07:35:12.376Z,10.88
